Terminal Aerodrome Forecast
Issued by NWS Central Illinois

Home | Current Version | Previous Version | Text Only | Print | Product List | Glossary On
Versions: 1 2 3 4 5 6 7 8 9 10 11 12 13 14 15 16 17 18 19 20 21 22 23 24 25
000
FTUS43 KILX 232338
TAFPIA
TAF
KPIA 232338Z 2400/2424 17005KT P6SM BKN250
     FM240100 15005KT P6SM VCTS SCT050CB OVC250
     FM240900 18006KT 4SM BR BKN250
     FM241600 21009KT P6SM FEW035 BKN250
     FM242100 24009KT P6SM SCT045 OVC250 PROB30 2421/2424 4SM TSRA
      BKN045CB=

USA.gov is the U.S. government's official web portal to all federal, state and local government web resources and services.